Airfield :
LOGIN :

Register | Disclaimer

   EN    FR    IT 

 










Legend :    VFR   Marginal VFR   IFR   Intensive IFR   Very Intensive IFR
Visi :
Ceiling :
>= 8 km
>= 3000ft
5 to 8 km
1000 to 3000 ft
1500m to 5 km
500 to 1000 ft
800 to 1500m
200 to 500 ft
< 800m
< 200 ft
Symbols :   Thunderstorms  Fog  Heavy snow  Heavy precipitations  Wind > 20 kt
SIGMETs :     Misc.  Thunderstorms  Icing  Turbulence  Mountain Waves  Volcanic Ashes






- Airport Elevation : 741 ft
- IATA code : PED


LKPD - Pardubice AB

CURRENT METAR :
  • 290532Z VRB01KT 3000 BR SCT002 12/11 Q1018 RMK YLO

EXPIRED METARs :
  • 290500Z VRB01KT 0300 R27/0375N FG VV001 11/11 Q1018 NOSIG
  • 290430Z 24002KT 0200 R27/0225N FG VV001 11/10 Q1018 NOSIG RMK RED RED
  • 290400Z VRB01KT 0400 R27/0400N FG VV002 10/09 Q1018 NOSIG RMK RED RED
  • 290334Z 26001KT 0900 R27/P2000N FG BKN004 09/09 Q1018 RMK AMB
  • 290309Z 00000KT 2000 BR SCT005 BKN050 08/07 Q1018 RMK YLO
  • 290300Z VRB01KT 5000 BR NSC 09/08 Q1018 RMK BLU
  • 290230Z 26002KT CAVOK 10/09 Q1018 RMK BLU
  • 290200Z 27002KT CAVOK 09/09 Q1018 RMK BLU
  • 290130Z 00000KT CAVOK 10/09 Q1018 RMK BLU
  • 290100Z 00000KT CAVOK 10/10 Q1018 RMK BLU

TAF TAF LKPD
Valid from the 29 at 00:00 until the 30 at 00:00 UTC


282300Z 2900/3000 26010KT 9999 BKN040
BECMG 2900/2902 28004KT
PROB40
TEMPO 2902/2906 VRB02KT 5000 BR BKN010
BECMG 2907/2909 CAVOK



MET'MAP, your aeronautical weather chart ! - Copyright ORBIFLY December 2007 - Disclaimer

ORBIFLY MET'MAP TEAM :

Programming & Development : Alexandra Zaïnal
Original concept : Baudouin d'Aumeries
Technical & hardware support : Manuel Goepfert
Assistance : Marc-Olivier Méhu




SOURCES & CREDITS :

   NOAA